createdAt,value
2023-08-25T00:01:38.970Z,52.04
2023-08-25T00:04:05.659Z,52.29
2023-08-25T00:06:32.309Z,53.21
2023-08-25T00:08:59.105Z,52.40
2023-08-25T00:11:25.765Z,52.66
2023-08-25T00:13:52.407Z,52.43
2023-08-25T00:16:19.215Z,52.17
2023-08-25T00:18:48.687Z,52.61
2023-08-25T00:21:15.956Z,52.48
2023-08-25T00:23:42.586Z,52.88
2023-08-25T00:26:09.317Z,52.96
2023-08-25T00:28:36.089Z,53.60
2023-08-25T00:31:03.349Z,54.26
2023-08-25T00:33:30.062Z,54.48
2023-08-25T00:35:56.708Z,56.65
2023-08-25T00:38:25.267Z,58.27
2023-08-25T00:40:51.918Z,57.65
2023-08-25T00:43:20.411Z,57.67
2023-08-25T00:45:47.155Z,57.96
2023-08-25T00:48:14.066Z,59.59
2023-08-25T00:50:41.830Z,59.28
2023-08-25T00:53:11.273Z,59.29
2023-08-25T00:55:37.896Z,57.24
2023-08-25T00:58:07.142Z,57.25
2023-08-25T01:00:34.784Z,58.50
2023-08-25T01:03:02.336Z,58.46
2023-08-25T01:05:29.205Z,58.16
2023-08-25T01:07:57.843Z,57.04
2023-08-25T01:10:35.084Z,56.60
2023-08-25T01:13:16.186Z,58.77
2023-08-25T01:15:46.532Z,55.91
2023-08-25T01:18:17.338Z,55.95
2023-08-25T01:20:48.036Z,58.00
2023-08-25T01:23:20.825Z,56.08
2023-08-25T01:25:49.462Z,55.74
2023-08-25T01:28:26.455Z,56.02
2023-08-25T01:30:56.279Z,56.10
2023-08-25T01:33:25.165Z,56.11
2023-08-25T01:35:59.137Z,56.48
2023-08-25T01:38:41.815Z,56.60
2023-08-25T01:41:22.895Z,57.10
2023-08-25T01:43:53.124Z,57.60
2023-08-25T01:46:21.530Z,57.85
2023-08-25T01:48:53.907Z,59.30
2023-08-25T01:51:20.926Z,58.25
2023-08-25T01:53:56.326Z,57.73
2023-08-25T01:56:24.150Z,58.46
2023-08-25T01:58:52.001Z,57.10
2023-08-25T02:01:18.839Z,58.56
2023-08-25T02:03:45.781Z,57.07
2023-08-25T02:06:12.751Z,58.25
2023-08-25T02:08:39.398Z,57.26
2023-08-25T02:11:06.112Z,57.43
2023-08-25T02:13:32.746Z,57.02
2023-08-25T02:15:59.502Z,57.93
2023-08-25T02:18:26.212Z,58.02
2023-08-25T02:20:52.958Z,57.34
2023-08-25T02:23:20.362Z,57.98
2023-08-25T02:25:47.003Z,57.93
2023-08-25T02:28:13.716Z,57.44
2023-08-25T02:30:40.551Z,57.50
2023-08-25T02:33:07.642Z,58.02
2023-08-25T02:35:34.326Z,57.70
2023-08-25T02:38:07.622Z,57.75
2023-08-25T02:40:35.230Z,58.35
2023-08-25T02:43:06.436Z,58.17
2023-08-25T02:45:34.215Z,58.33
2023-08-25T02:48:01.140Z,58.20
2023-08-25T02:50:28.322Z,58.09
2023-08-25T02:52:54.961Z,58.41
2023-08-25T02:55:23.319Z,58.24
2023-08-25T02:57:51.539Z,58.65
2023-08-25T03:00:27.027Z,59.29
2023-08-25T03:02:55.426Z,60.50
2023-08-25T03:05:23.624Z,60.50
2023-08-25T03:07:54.623Z,61.07
2023-08-25T03:10:22.385Z,60.09
2023-08-25T03:12:49.825Z,60.44
2023-08-25T03:15:16.928Z,60.45
2023-08-25T03:17:43.635Z,60.49
2023-08-25T03:20:10.918Z,60.71
2023-08-25T03:22:37.839Z,60.73
2023-08-25T03:25:04.843Z,60.92
2023-08-25T03:27:34.050Z,60.99
2023-08-25T03:30:01.549Z,61.31
2023-08-25T03:32:30.262Z,61.21
2023-08-25T03:34:56.990Z,61.51
2023-08-25T03:37:25.401Z,61.68
2023-08-25T03:39:52.065Z,61.90
2023-08-25T03:42:19.939Z,62.32
2023-08-25T03:44:48.540Z,62.09
2023-08-25T03:47:15.215Z,62.09
2023-08-25T03:49:41.840Z,62.32
2023-08-25T03:52:08.988Z,62.25
2023-08-25T03:54:36.316Z,62.25
2023-08-25T03:57:07.625Z,62.66
2023-08-25T03:59:34.975Z,62.82
2023-08-25T04:02:04.885Z,63.04
2023-08-25T04:04:35.324Z,63.11
2023-08-25T04:07:02.046Z,63.59
2023-08-25T04:09:28.838Z,63.78
2023-08-25T04:11:58.182Z,63.92
2023-08-25T04:14:24.946Z,64.25
2023-08-25T04:16:52.044Z,64.44
2023-08-25T04:19:22.310Z,64.57
2023-08-25T04:21:49.853Z,64.84
2023-08-25T04:24:20.067Z,65.00
2023-08-25T04:26:46.946Z,65.27
2023-08-25T04:29:13.768Z,65.34
2023-08-25T04:31:41.537Z,65.50
2023-08-25T04:34:10.374Z,65.55
2023-08-25T04:36:38.011Z,65.46
2023-08-25T04:39:05.182Z,65.49
2023-08-25T04:41:32.642Z,65.25
2023-08-25T04:43:59.337Z,65.05
2023-08-25T04:46:29.618Z,65.07
2023-08-25T04:48:57.823Z,65.09
2023-08-25T04:51:24.791Z,64.96
2023-08-25T04:53:51.605Z,64.92
2023-08-25T04:56:19.114Z,65.22
2023-08-25T04:58:45.895Z,65.58
2023-08-25T05:01:15.153Z,67.99
2023-08-25T05:03:43.664Z,66.89
2023-08-25T05:06:10.835Z,66.09
2023-08-25T05:08:37.574Z,65.91
2023-08-25T05:11:04.876Z,65.97
2023-08-25T05:13:32.494Z,65.67
2023-08-25T05:15:59.673Z,65.87
2023-08-25T05:18:44.669Z,65.96
2023-08-25T05:21:11.709Z,66.52
2023-08-25T05:23:38.572Z,66.05
2023-08-25T05:26:05.287Z,66.75
2023-08-25T05:28:32.095Z,66.36
2023-08-25T05:30:59.687Z,66.31
2023-08-25T05:33:48.440Z,66.03
2023-08-25T05:36:44.804Z,65.39
2023-08-25T05:39:12.784Z,64.93
2023-08-25T05:41:39.718Z,64.75
2023-08-25T05:44:06.467Z,64.68
2023-08-25T05:46:33.258Z,64.58
2023-08-25T05:48:59.971Z,64.71
2023-08-25T05:51:27.261Z,64.41
2023-08-25T05:53:54.132Z,64.22
2023-08-25T05:56:20.783Z,64.47
2023-08-25T05:58:48.327Z,64.28
2023-08-25T06:01:14.993Z,64.70
2023-08-25T06:03:41.780Z,64.01
2023-08-25T06:06:08.471Z,63.70
2023-08-25T06:08:36.688Z,63.79
2023-08-25T06:11:03.735Z,63.23
2023-08-25T06:13:30.480Z,63.21
2023-08-25T06:15:57.170Z,63.59
2023-08-25T06:18:25.236Z,63.39
2023-08-25T06:20:52.799Z,63.50
2023-08-25T06:23:19.510Z,63.51
2023-08-25T06:25:46.204Z,62.96
2023-08-25T06:28:13.531Z,63.53
2023-08-25T06:30:43.266Z,64.09
2023-08-25T06:33:11.373Z,63.77
2023-08-25T06:35:41.444Z,64.16
2023-08-25T06:38:09.302Z,64.07
2023-08-25T06:40:36.038Z,63.71
2023-08-25T06:43:03.822Z,64.25
2023-08-25T06:45:31.744Z,63.68
2023-08-25T06:47:58.929Z,64.10
2023-08-25T06:50:26.029Z,64.37
2023-08-25T06:52:52.716Z,64.20
2023-08-25T06:55:19.994Z,64.43
2023-08-25T06:57:49.931Z,64.46
2023-08-25T07:00:18.984Z,64.03
2023-08-25T07:02:46.252Z,64.19
2023-08-25T07:05:14.328Z,65.05
2023-08-25T07:07:41.477Z,64.71
2023-08-25T07:10:08.659Z,64.44
2023-08-25T07:12:36.210Z,64.38
2023-08-25T07:15:03.530Z,64.23
2023-08-25T07:17:31.080Z,63.70
2023-08-25T07:19:57.758Z,64.11
2023-08-25T07:22:24.449Z,64.04
2023-08-25T07:24:53.456Z,63.64
2023-08-25T07:27:21.143Z,62.86
2023-08-25T07:29:47.851Z,63.33
2023-08-25T07:32:14.799Z,63.26
2023-08-25T07:34:48.011Z,63.46
2023-08-25T07:37:15.122Z,62.43
2023-08-25T07:39:42.464Z,62.45
2023-08-25T07:42:09.732Z,62.61
2023-08-25T07:44:39.568Z,61.89
2023-08-25T07:47:06.467Z,62.46
2023-08-25T07:49:33.378Z,61.74
2023-08-25T07:52:00.187Z,62.27
2023-08-25T07:54:28.171Z,60.99
2023-08-25T07:56:55.087Z,60.58
2023-08-25T07:59:22.400Z,60.77
2023-08-25T08:01:49.386Z,60.28
2023-08-25T08:04:16.175Z,60.31
2023-08-25T08:06:43.035Z,60.01
2023-08-25T08:09:10.040Z,59.78
2023-08-25T08:11:37.005Z,60.61
2023-08-25T08:14:04.646Z,60.74
2023-08-25T08:16:31.794Z,59.54
2023-08-25T08:18:59.665Z,59.50
2023-08-25T08:21:26.427Z,60.51
2023-08-25T08:23:53.317Z,59.72
2023-08-25T08:26:20.068Z,58.74
2023-08-25T08:28:46.632Z,58.47
2023-08-25T08:31:19.347Z,58.38
2023-08-25T08:33:48.273Z,58.11
2023-08-25T08:36:20.385Z,57.71
2023-08-25T08:38:47.311Z,56.97
2023-08-25T08:41:18.514Z,57.77
2023-08-25T08:43:47.139Z,56.72
2023-08-25T08:46:18.671Z,56.78
2023-08-25T08:48:46.582Z,56.49
2023-08-25T08:51:16.053Z,55.11
2023-08-25T08:53:44.087Z,56.25
2023-08-25T08:56:11.145Z,54.74
2023-08-25T08:58:37.819Z,54.40
2023-08-25T09:01:04.980Z,53.01
2023-08-25T09:03:35.727Z,54.54
2023-08-25T09:06:04.546Z,52.36
2023-08-25T09:08:33.008Z,51.90
2023-08-25T09:11:01.579Z,53.04
2023-08-25T09:13:28.271Z,54.17
2023-08-25T09:15:56.109Z,52.51
2023-08-25T09:18:22.894Z,51.60
2023-08-25T09:20:49.535Z,52.16
2023-08-25T09:23:16.254Z,51.71
2023-08-25T09:25:43.725Z,50.64
2023-08-25T09:28:11.125Z,50.38
2023-08-25T09:30:42.352Z,50.47
2023-08-25T09:33:11.479Z,52.47
2023-08-25T09:35:38.508Z,51.10
2023-08-25T09:38:05.284Z,48.75
2023-08-25T09:40:32.398Z,47.54
2023-08-25T09:43:00.199Z,46.95
2023-08-25T09:45:34.239Z,41.52
2023-08-25T09:48:14.936Z,39.13
2023-08-25T09:50:44.105Z,38.90
2023-08-25T09:53:14.034Z,37.05
2023-08-25T09:55:41.061Z,34.03
2023-08-25T09:58:13.259Z,35.49
2023-08-25T10:00:40.999Z,34.78
2023-08-25T10:03:10.810Z,34.46
2023-08-25T10:05:39.419Z,33.53
2023-08-25T10:08:09.169Z,33.38
2023-08-25T10:10:37.696Z,33.89
2023-08-25T10:13:05.192Z,35.50
2023-08-25T10:15:33.103Z,36.56
2023-08-25T10:18:04.608Z,39.57
2023-08-25T10:20:32.636Z,38.37
2023-08-25T10:23:01.142Z,39.08
2023-08-25T10:25:34.595Z,39.50
2023-08-25T10:28:04.817Z,39.48
2023-08-25T10:30:32.945Z,38.50
2023-08-25T10:33:05.884Z,38.42
2023-08-25T10:35:54.835Z,37.58
2023-08-25T10:38:23.225Z,36.18
2023-08-25T10:40:49.837Z,34.97
2023-08-25T10:43:23.795Z,34.87
2023-08-25T10:45:54.079Z,34.10
2023-08-25T10:48:35.539Z,35.74
2023-08-25T10:51:07.700Z,36.58
2023-08-25T10:53:54.781Z,36.00
2023-08-25T10:56:24.794Z,36.47
2023-08-25T10:59:03.417Z,36.89
2023-08-25T11:01:58.844Z,36.15
2023-08-25T11:04:28.850Z,35.18
2023-08-25T11:06:57.442Z,34.78
2023-08-25T11:09:33.552Z,35.47
2023-08-25T11:12:08.461Z,34.18
2023-08-25T11:14:39.069Z,35.61
2023-08-25T11:17:08.340Z,34.33
2023-08-25T11:19:43.814Z,33.45
2023-08-25T11:22:11.933Z,34.28
2023-08-25T11:24:38.894Z,34.08
2023-08-25T11:27:13.589Z,33.72
2023-08-25T11:29:46.566Z,34.85
2023-08-25T11:32:15.361Z,36.19
2023-08-25T11:34:46.469Z,37.80
2023-08-25T11:37:14.991Z,38.73
2023-08-25T11:39:45.781Z,39.68
2023-08-25T11:42:13.909Z,40.23
2023-08-25T11:44:44.469Z,39.52
2023-08-25T11:47:12.021Z,41.37
2023-08-25T11:49:40.946Z,42.03
2023-08-25T11:52:08.492Z,42.71
2023-08-25T11:54:49.280Z,43.83
2023-08-25T11:57:16.228Z,44.73
2023-08-25T11:59:43.945Z,44.60
2023-08-25T12:02:15.527Z,45.24
2023-08-25T12:04:55.333Z,44.82
2023-08-25T12:07:29.164Z,44.97
2023-08-25T12:09:58.031Z,46.20
2023-08-25T12:12:25.152Z,46.10
2023-08-25T12:14:54.911Z,48.07
2023-08-25T12:17:24.582Z,47.35
2023-08-25T12:19:51.469Z,47.84
2023-08-25T12:22:18.099Z,47.60
2023-08-25T12:24:44.759Z,53.56
2023-08-25T12:27:11.750Z,56.96
2023-08-25T12:29:38.359Z,58.23
2023-08-25T12:32:05.796Z,56.99
2023-08-25T12:34:32.570Z,60.59
2023-08-25T12:36:59.164Z,61.91
2023-08-25T12:39:26.171Z,63.19
2023-08-25T12:41:52.996Z,62.51
2023-08-25T12:44:19.633Z,61.27
2023-08-25T12:46:46.312Z,58.99
2023-08-25T12:49:12.987Z,59.62
2023-08-25T12:51:40.870Z,61.73
2023-08-25T12:54:11.074Z,59.96
2023-08-25T12:56:37.822Z,60.88
2023-08-25T12:59:04.461Z,58.76
2023-08-25T13:01:31.228Z,63.84
2023-08-25T13:03:58.844Z,60.33
2023-08-25T13:06:25.711Z,57.46
2023-08-25T13:08:52.439Z,57.67
2023-08-25T13:11:19.123Z,57.84
2023-08-25T13:13:45.736Z,56.20
2023-08-25T13:16:12.601Z,56.04
2023-08-25T13:18:39.394Z,56.58
2023-08-25T13:21:06.088Z,55.38
2023-08-25T13:23:41.123Z,55.10
2023-08-25T13:26:15.086Z,54.42
2023-08-25T13:28:42.065Z,53.78
2023-08-25T13:31:08.700Z,52.43
2023-08-25T13:33:36.004Z,51.57
2023-08-25T13:36:06.104Z,50.75
2023-08-25T13:38:32.697Z,50.83
2023-08-25T13:40:59.335Z,50.49
2023-08-25T13:43:25.946Z,53.19
2023-08-25T13:45:52.716Z,50.04
2023-08-25T13:48:19.449Z,51.47
2023-08-25T13:50:46.932Z,49.40
2023-08-25T13:53:13.724Z,47.77
2023-08-25T13:55:40.770Z,48.88
2023-08-25T13:58:07.827Z,47.96
2023-08-25T14:00:35.070Z,49.55
2023-08-25T14:03:03.550Z,49.02
2023-08-25T14:05:31.108Z,49.07
2023-08-25T14:07:58.372Z,47.42
2023-08-25T14:10:26.617Z,45.62
2023-08-25T14:12:53.802Z,45.63
2023-08-25T14:15:20.520Z,44.50
2023-08-25T14:17:47.657Z,44.14
2023-08-25T14:20:15.300Z,44.56
2023-08-25T14:22:42.022Z,45.57
2023-08-25T14:25:10.073Z,46.43
2023-08-25T14:27:36.718Z,48.72
2023-08-25T14:30:03.716Z,47.27
2023-08-25T14:32:30.527Z,47.04
2023-08-25T14:34:57.316Z,48.67
2023-08-25T14:37:24.052Z,48.83
2023-08-25T14:39:50.910Z,49.20
2023-08-25T14:42:17.655Z,49.37
2023-08-25T14:44:44.296Z,46.99
2023-08-25T14:47:10.896Z,48.23
2023-08-25T14:49:37.520Z,46.20
2023-08-25T14:52:04.670Z,47.08
2023-08-25T14:54:31.602Z,48.11
2023-08-25T14:56:58.767Z,46.70
2023-08-25T14:59:27.738Z,47.11
2023-08-25T15:01:54.790Z,48.07
2023-08-25T15:04:21.724Z,47.31
2023-08-25T15:06:49.030Z,48.33
2023-08-25T15:09:16.495Z,47.75
2023-08-25T15:11:43.163Z,47.92
2023-08-25T15:14:09.784Z,47.21
2023-08-25T15:16:36.539Z,48.30
2023-08-25T15:19:03.439Z,47.68
2023-08-25T15:21:31.549Z,47.48
2023-08-25T15:23:58.207Z,47.25
2023-08-25T15:26:24.983Z,47.28
2023-08-25T15:28:51.626Z,47.51
2023-08-25T15:31:18.352Z,47.91
2023-08-25T15:33:45.079Z,47.69
2023-08-25T15:36:13.299Z,47.75
2023-08-25T15:38:40.572Z,48.03
2023-08-25T15:41:12.820Z,48.33
2023-08-25T15:43:41.872Z,47.70
2023-08-25T15:46:09.257Z,48.38
2023-08-25T15:48:36.944Z,47.58
2023-08-25T15:51:04.937Z,47.95
2023-08-25T15:53:31.707Z,48.69
2023-08-25T15:55:58.782Z,48.31
2023-08-25T15:58:25.415Z,48.85
2023-08-25T16:00:57.622Z,47.87
2023-08-25T16:03:24.413Z,48.22
2023-08-25T16:06:11.694Z,49.16
2023-08-25T16:08:40.016Z,49.58
2023-08-25T16:11:08.626Z,49.25
2023-08-25T16:13:37.313Z,49.61
2023-08-25T16:16:04.784Z,49.45
2023-08-25T16:18:32.616Z,49.42
2023-08-25T16:21:06.671Z,49.99
2023-08-25T16:23:37.036Z,50.44
2023-08-25T16:26:04.549Z,50.78
2023-08-25T16:28:32.552Z,51.84
2023-08-25T16:31:04.728Z,50.99
2023-08-25T16:33:32.922Z,50.98
2023-08-25T16:36:01.086Z,52.27
2023-08-25T16:38:28.074Z,50.75
2023-08-25T16:40:54.763Z,51.09
2023-08-25T16:43:23.453Z,51.32
2023-08-25T16:45:50.412Z,51.06
2023-08-25T16:48:17.109Z,50.85
2023-08-25T16:50:43.808Z,51.67
2023-08-25T16:53:13.063Z,50.94
2023-08-25T16:55:44.586Z,51.06
2023-08-25T16:58:11.397Z,51.37
2023-08-25T17:00:42.334Z,50.92
2023-08-25T17:03:09.324Z,50.89
2023-08-25T17:05:36.568Z,50.22
2023-08-25T17:08:05.569Z,50.25
2023-08-25T17:10:33.208Z,50.31
2023-08-25T17:13:00.309Z,50.33
2023-08-25T17:15:34.515Z,50.31
2023-08-25T17:18:01.899Z,50.56
2023-08-25T17:20:28.643Z,50.23
2023-08-25T17:22:55.871Z,50.38
2023-08-25T17:25:24.120Z,50.79
2023-08-25T17:27:51.563Z,51.04
2023-08-25T17:30:18.372Z,51.32
2023-08-25T17:32:45.146Z,51.00
2023-08-25T17:35:12.662Z,51.28
2023-08-25T17:37:40.124Z,50.74
2023-08-25T17:40:07.477Z,51.28
2023-08-25T17:42:36.155Z,50.90
2023-08-25T17:45:04.047Z,51.96
2023-08-25T17:47:30.874Z,52.19
2023-08-25T17:49:57.686Z,51.90
2023-08-25T17:52:24.466Z,51.71
2023-08-25T17:54:51.650Z,51.74
2023-08-25T17:57:18.480Z,51.83
2023-08-25T17:59:45.261Z,52.17
2023-08-25T18:02:12.188Z,52.30
2023-08-25T18:04:39.840Z,52.34
2023-08-25T18:07:07.109Z,52.45
2023-08-25T18:09:35.157Z,52.46
2023-08-25T18:12:02.016Z,52.36
2023-08-25T18:14:30.410Z,52.48
2023-08-25T18:16:57.300Z,52.78
2023-08-25T18:19:23.962Z,52.90
2023-08-25T18:21:51.390Z,52.94
2023-08-25T18:24:19.390Z,53.12
2023-08-25T18:29:13.612Z,53.25
2023-08-25T18:31:40.833Z,53.27
2023-08-25T18:34:07.965Z,53.56
2023-08-25T18:36:36.214Z,54.13
2023-08-25T18:39:05.918Z,53.82
2023-08-25T18:41:33.371Z,53.73
2023-08-25T18:44:01.799Z,54.16
2023-08-25T18:46:29.773Z,54.01
2023-08-25T18:48:57.314Z,54.23
2023-08-25T18:51:26.705Z,54.52
2023-08-25T18:53:54.334Z,56.65
2023-08-25T18:56:22.608Z,57.02
2023-08-25T18:58:50.249Z,55.55
2023-08-25T19:01:17.289Z,55.70
2023-08-25T19:03:45.875Z,55.16
2023-08-25T19:06:13.343Z,55.30
2023-08-25T19:08:40.091Z,55.89
2023-08-25T19:11:06.832Z,55.10
2023-08-25T19:13:34.744Z,55.26
2023-08-25T19:16:03.977Z,54.67
2023-08-25T19:18:31.335Z,55.48
2023-08-25T19:21:04.431Z,56.33
2023-08-25T19:23:33.714Z,58.33
2023-08-25T19:26:03.130Z,58.91
2023-08-25T19:28:30.768Z,60.08
2023-08-25T19:31:03.171Z,61.67
2023-08-25T19:33:31.173Z,62.98
2023-08-25T19:35:58.369Z,64.12
2023-08-25T19:38:26.201Z,64.87
2023-08-25T19:40:54.111Z,65.64
2023-08-25T19:43:21.068Z,66.42
2023-08-25T19:45:49.610Z,67.53
2023-08-25T19:48:16.480Z,68.01
2023-08-25T19:50:43.090Z,68.94
2023-08-25T19:53:09.839Z,69.11
2023-08-25T19:55:41.534Z,69.28
2023-08-25T19:58:09.985Z,70.02
2023-08-25T20:00:37.137Z,71.29
2023-08-25T20:03:04.582Z,71.18
2023-08-25T20:05:31.501Z,70.96
2023-08-25T20:07:58.721Z,70.93
2023-08-25T20:10:27.303Z,70.35
2023-08-25T20:12:54.635Z,70.87
2023-08-25T20:15:21.819Z,70.91
2023-08-25T20:17:48.620Z,71.69
2023-08-25T20:20:15.428Z,71.46
2023-08-25T20:22:42.099Z,71.53
2023-08-25T20:25:10.342Z,70.76
2023-08-25T20:27:37.947Z,71.46
2023-08-25T20:30:08.207Z,71.57
2023-08-25T20:32:35.110Z,71.88
2023-08-25T20:35:02.195Z,71.60
2023-08-25T20:37:30.487Z,72.16
2023-08-25T20:39:58.751Z,71.84
2023-08-25T20:42:26.051Z,72.21
2023-08-25T20:44:52.716Z,73.04
2023-08-25T20:47:19.411Z,73.40
2023-08-25T20:49:46.413Z,73.06
2023-08-25T20:52:13.431Z,73.33
2023-08-25T20:54:40.064Z,73.78
2023-08-25T20:57:07.416Z,73.95
2023-08-25T20:59:34.744Z,74.04
2023-08-25T21:02:04.165Z,74.42
2023-08-25T21:04:34.330Z,74.33
2023-08-25T21:07:01.093Z,74.39
2023-08-25T21:09:30.192Z,74.77
2023-08-25T21:11:56.939Z,74.81
2023-08-25T21:14:23.731Z,74.34
2023-08-25T21:16:50.725Z,74.80
2023-08-25T21:19:17.394Z,74.59
2023-08-25T21:21:44.171Z,75.32
2023-08-25T21:24:12.074Z,74.91
2023-08-25T21:26:39.968Z,75.19
2023-08-25T21:29:08.582Z,75.15
2023-08-25T21:31:38.248Z,74.83
2023-08-25T21:34:08.589Z,75.61
2023-08-25T21:36:35.555Z,75.12
2023-08-25T21:39:02.824Z,75.32
2023-08-25T21:41:29.845Z,75.70
2023-08-25T21:43:57.421Z,75.65
2023-08-25T21:46:26.213Z,76.18
2023-08-25T21:48:53.021Z,76.23
2023-08-25T21:51:19.719Z,75.48
2023-08-25T21:53:46.397Z,75.10
2023-08-25T21:56:13.461Z,75.10
2023-08-25T21:58:40.223Z,74.93
2023-08-25T22:01:11.053Z,74.99
2023-08-25T22:03:38.168Z,74.54
2023-08-25T22:06:05.622Z,74.95
2023-08-25T22:08:32.432Z,74.58
2023-08-25T22:11:00.168Z,75.08
2023-08-25T22:13:26.902Z,75.19
2023-08-25T22:15:53.731Z,75.74
2023-08-25T22:18:20.463Z,74.99
2023-08-25T22:20:58.605Z,75.16
2023-08-25T22:23:25.690Z,75.41
2023-08-25T22:25:52.834Z,75.15
2023-08-25T22:28:19.581Z,75.13
2023-08-25T22:30:46.508Z,74.97
2023-08-25T22:35:42.841Z,75.33
2023-08-25T22:38:09.614Z,75.06
2023-08-25T22:40:36.257Z,75.19
2023-08-25T22:43:02.912Z,75.31
2023-08-25T22:45:29.676Z,74.92
2023-08-25T22:47:56.553Z,75.13
2023-08-25T22:50:23.381Z,75.31
2023-08-25T22:52:50.053Z,75.58
2023-08-25T22:55:16.776Z,75.63
2023-08-25T22:57:43.492Z,75.92
2023-08-25T23:00:10.825Z,75.94
2023-08-25T23:02:37.613Z,76.27
2023-08-25T23:05:06.340Z,76.40
2023-08-25T23:07:33.075Z,77.04
2023-08-25T23:09:59.815Z,77.29
2023-08-25T23:12:26.666Z,77.35
2023-08-25T23:14:53.265Z,77.56
2023-08-25T23:17:19.989Z,77.42
2023-08-25T23:19:46.597Z,77.66
2023-08-25T23:22:14.103Z,77.58
2023-08-25T23:24:45.377Z,78.39
2023-08-25T23:27:15.241Z,78.18
2023-08-25T23:29:41.971Z,77.71
2023-08-25T23:32:09.164Z,78.68
2023-08-25T23:34:36.868Z,78.38
2023-08-25T23:37:04.566Z,77.80
2023-08-25T23:39:31.554Z,78.28
2023-08-25T23:41:58.366Z,78.09
2023-08-25T23:44:28.140Z,78.24
2023-08-25T23:46:55.554Z,78.25
2023-08-25T23:49:23.231Z,78.05
2023-08-25T23:51:50.360Z,78.30
2023-08-25T23:54:18.049Z,78.49
2023-08-25T23:56:45.097Z,78.47
2023-08-25T23:59:12.190Z,78.56
